Terminal Aerodrome Forecast
Issued by NWS Wakefield, VA

Home | Current Version | Previous Version | Text Only | Print | Product List | Glossary On
Versions: 1 2 3 4 5 6 7 8 9 10 11 12 13 14 15 16 17 18 19 20 21 22 23 24 25 26 27 28 29 30
000
FTUS41 KAKQ 101723
TAFECG
TAF
KECG 101723Z 1018/1118 22014G23KT P6SM SCT100
     FM110000 24008KT 6SM -SHRA BKN035
     FM110200 31010KT 6SM -RA OVC020
     FM110400 34012G20KT 5SM -RA BR OVC015
     FM110800 01012G20KT 4SM -RA BR OVC008
     FM111500 36012KT P6SM OVC010=

USA.gov is the U.S. government's official web portal to all federal, state and local government web resources and services.